• Join FlightAware (Why Join?)
  • Login
  • US Flag 
04:50PM EST


 

Airport Tracker/Info


-or-


 

Live Flight TrackerFlight Track Log ✈ SKW6448 ✈ 02-May-2013 ✈ KLAX - KAUS

Flight Track Log - Related Links

Times and Time Zones

All times are in EDT time to prevent confusion due to time zone crossing. See the SKW6448 flight status page for this flight to view local times or setup timezone preferences in your user account.

Time Position Orientation Groundspeed Altitude Reporting Facility
EDT Latitude Longitude Course Direction KTS MPH feet Rate Location/Type
12:11AM 33.9333 -118.4333 90° East 189 217 1,500  Level Southern California TRACON
12:12AM 33.9000 -118.5000 239° Southwest 243 280 3,500 2,100 Climbing Southern California TRACON
12:13AM 33.8467 -118.5550 221° Southwest 277 319 5,700 2,520 Climbing Los Angeles Center
12:14AM 33.7372 -118.5840 134° Southeast  Level FlightAware Approximate
12:14AM 33.7667 -118.5397 171° South 279 321 8,600  Level Los Angeles Center
12:15AM 33.6715 -118.4457 101° East  Level FlightAware Approximate
12:15AM 33.6942 -118.5022 157° South 301 346 10,600  Level Los Angeles Center
12:16AM 33.6334 -118.2896 90° East  Level FlightAware Approximate
12:16AM 33.6725 -118.3972 104° East 323 372 12,200  Level Los Angeles Center
12:17AM 33.6333 -118.1239 90° East  Level FlightAware Approximate
12:17AM 33.6725 -118.2911 90° East 344 396 13,900  Level Los Angeles Center
12:18AM 33.6672 -118.1472 92° East 367 422 15,700 1,740 Climbing Los Angeles Center
12:20AM 33.6553 -118.0228 97° East 378 435 17,500 1,620 Climbing Los Angeles Center
12:21AM 33.6411 -117.8942 98° East 386 444 19,100 1,560 Climbing Los Angeles Center
12:22AM 33.6267 -117.7622 97° East 397 457 20,700 1,560 Climbing Los Angeles Center
12:23AM 33.6122 -117.6272 97° East 406 467 22,400 1,440 Climbing Los Angeles Center
12:24AM 33.5967 -117.4886 98° East 415 478 23,700 1,260 Climbing Los Angeles Center
12:25AM 33.5811 -117.3472 97° East 426 490 25,100 1,260 Climbing Los Angeles Center
12:26AM 33.5597 -117.1761 98° East 433 498 26,400 1,020 Climbing Los Angeles Center
12:27AM 33.5428 -117.0383 98° East 447 514 27,300 780 Climbing Los Angeles Center
12:28AM 33.5256 -116.8867 98° East 458 527 28,100 900 Climbing Los Angeles Center
12:29AM 33.5078 -116.7311 98° East 468 539 29,200 1,020 Climbing Los Angeles Center
12:30AM 33.4900 -116.5739 98° East 475 547 30,200 1,020 Climbing Los Angeles Center
12:31AM 33.4711 -116.4167 98° East 476 548 31,300 1,080 Climbing Los Angeles Center
12:32AM 33.4528 -116.2603 98° East 474 545 32,500 1,140 Climbing Los Angeles Center
12:33AM 33.4300 -116.0758 98° East 467 537 33,700 1,020 Climbing Los Angeles Center
12:34AM 33.4108 -115.9208 98° East 469 540 34,700 960 Climbing Los Angeles Center
12:35AM 33.3914 -115.7697 99° East 462 532 35,700 900 Climbing Los Angeles Center
12:36AM 33.3722 -115.6183 99° East 460 529 36,600 720 Climbing Los Angeles Center
12:37AM 33.3517 -115.4683 99° East 457 526 37,200 480 Climbing Los Angeles Center
12:38AM 33.3319 -115.3189 99° East 457 526 37,700 360 Climbing Los Angeles Center
12:39AM 33.3133 -115.1667 98° East 463 533 38,000 240 Climbing Los Angeles Center
12:40AM 33.2950 -115.0142 98° East 465 535 38,300 360 Climbing Los Angeles Center
12:41AM 33.2719 -114.8611 100° East 468 539 38,800 300 Climbing Los Angeles Center
12:42AM 33.2536 -114.7092 98° East 465 535 39,000 60 Climbing Los Angeles Center
12:43AM 33.2350 -114.5619 99° East 470 541 39,000  Level Albuquerque Center
12:44AM 33.2147 -114.4050 99° East 476 548 39,000  Level Albuquerque Center
12:45AM 33.1878 -114.2142 100° East 484 557 39,000  Level Albuquerque Center
12:46AM 33.1653 -114.0553 100° East 485 558 39,000  Level Albuquerque Center
12:47AM 33.1417 -113.8972 100° East 485 558 39,000  Level Albuquerque Center
12:48AM 33.1183 -113.7394 100° East 484 557 39,000  Level Albuquerque Center
12:49AM 33.0958 -113.5808 100° East 484 557 39,000  Level Albuquerque Center
12:50AM 33.0733 -113.4217 100° East 485 558 39,000  Level Albuquerque Center
12:51AM 33.0508 -113.2617 99° East 487 560 39,000  Level Albuquerque Center
12:52AM 33.0278 -113.1028 100° East 486 559 39,000  Level Albuquerque Center
12:53AM 33.0036 -112.9442 100° East 485 558 39,000  Level Albuquerque Center
12:54AM 32.9792 -112.7844 100° East 486 559 39,000  Level Albuquerque Center
12:55AM 32.9550 -112.6250 100° East 487 560 39,000  Level Albuquerque Center
12:56AM 32.9303 -112.4669 101° East 485 558 39,000  Level Albuquerque Center
12:57AM 32.9058 -112.3075 100° East 487 560 39,000  Level Albuquerque Center
12:58AM 32.8833 -112.1611 100° East 489 563 39,000  Level Albuquerque Center
12:59AM 32.8542 -111.9733 100° East 485 558 39,000  Level Albuquerque Center
01:00AM 32.8294 -111.8136 100° East 492 566 39,000  Level Albuquerque Center
01:01AM 32.8039 -111.6556 101° East 491 565 39,000  Level Albuquerque Center
01:02AM 32.7789 -111.4972 101° East 490 564 39,000  Level Albuquerque Center
01:03AM 32.7525 -111.3400 101° East 489 563 39,000  Level Albuquerque Center
01:04AM 32.7272 -111.1828 101° East 488 562 39,000  Level Albuquerque Center
01:05AM 32.7008 -111.0242 101° East 491 565 39,000  Level Albuquerque Center
01:06AM 32.6739 -110.8664 101° East 491 565 39,000  Level Albuquerque Center
01:07AM 32.6475 -110.7075 101° East 493 567 39,000  Level Albuquerque Center
01:08AM 32.6194 -110.5478 102° East 495 570 39,000  Level Albuquerque Center
01:09AM 32.5933 -110.3875 101° East 496 571 39,000  Level Albuquerque Center
01:10AM 32.5731 -110.2136 98° East 496 571 39,000  Level Albuquerque Center
01:11AM 32.5553 -110.0533 97° East 496 571 39,000  Level Albuquerque Center
01:12AM 32.5381 -109.8925 97° East 497 572 39,000  Level Albuquerque Center
01:13AM 32.5197 -109.7314 98° East 498 573 39,000  Level Albuquerque Center
01:14AM 32.5000 -109.5689 98° East 503 579 39,000  Level Albuquerque Center
01:15AM 32.4781 -109.3767 98° East 499 574 39,000  Level Albuquerque Center
01:16AM 32.4597 -109.2153 98° East 501 577 39,000  Level Albuquerque Center
01:17AM 32.4397 -109.0539 98° East 503 579 39,000  Level Albuquerque Center
01:18AM 32.4211 -108.8922 98° East 503 579 39,000  Level Albuquerque Center
01:19AM 32.4019 -108.7311 98° East 503 579 39,000  Level Albuquerque Center
01:20AM 32.3828 -108.5686 98° East 506 582 39,000  Level Albuquerque Center
01:21AM 32.3608 -108.3872 98° East 506 582 39,000  Level Albuquerque Center
01:22AM 32.3397 -108.2239 99° East 504 580 39,000  Level Albuquerque Center
01:23AM 32.3192 -108.0594 98° East 508 585 39,000  Level Albuquerque Center
01:24AM 32.2986 -107.8944 98° East 509 586 39,000  Level Albuquerque Center
01:26AM 32.2775 -107.7303 99° East 509 586 39,000  Level Albuquerque Center
01:27AM 32.2569 -107.5658 98° East 510 587 39,000  Level Albuquerque Center
01:28AM 32.2344 -107.3961 99° East 507 583 39,000  Level Albuquerque Center
01:29AM 32.2119 -107.2331 99° East 508 585 39,000  Level Albuquerque Center
01:30AM 32.1908 -107.0536 98° East 511 588 39,000  Level Albuquerque Center
01:31AM 32.1689 -106.8817 99° East 511 588 39,000  Level Albuquerque Center
01:32AM 32.1453 -106.7178 100° East 511 588 39,000  Level Albuquerque Center
01:33AM 32.1225 -106.5533 99° East 511 588 39,000  Level Albuquerque Center
01:34AM 32.0992 -106.3872 99° East 514 592 39,000  Level Albuquerque Center
01:35AM 32.0758 -106.2206 99° East 518 596 39,000  Level Albuquerque Center
01:36AM 32.0514 -106.0539 100° East 519 597 39,000  Level Albuquerque Center
01:37AM 32.0247 -105.8733 100° East 521 600 39,000  Level Albuquerque Center
01:38AM 32.0011 -105.7047 99° East 521 600 39,000  Level Albuquerque Center
01:39AM 31.9764 -105.5364 100° East 522 601 39,000  Level Albuquerque Center
01:40AM 31.9517 -105.3681 100° East 522 601 39,000  Level Albuquerque Center
01:41AM 31.9275 -105.2008 100° East 518 596 39,000  Level Albuquerque Center
01:42AM 31.9017 -105.0306 100° East 524 603 39,000  Level Albuquerque Center
01:43AM 31.8758 -104.8636 100° East 520 598 39,000  Level Albuquerque Center
01:44AM 31.8503 -104.6936 100° East 524 603 39,000  Level Albuquerque Center
01:45AM 31.8253 -104.5261 100° East 521 600 39,000  Level Albuquerque Center
01:46AM 31.7989 -104.3564 100° East 525 604 39,000  Level Albuquerque Center
01:47AM 31.7731 -104.1864 100° East 527 606 39,000  Level Albuquerque Center
01:48AM 31.7453 -104.0172 101° East 527 606 39,000  Level Albuquerque Center
01:49AM 31.7200 -103.8489 100° East 523 602 39,000  Level Albuquerque Center
01:50AM 31.6928 -103.6875 101° East 526 605 39,000  Level Albuquerque Center
01:51AM 31.6631 -103.5189 102° East 528 608 39,000  Level Albuquerque Center
01:52AM 31.6367 -103.3539 101° East 524 603 39,000  Level Albuquerque Center
01:53AM 31.6083 -103.1867 101° East 522 601 39,000  Level Albuquerque Center
01:54AM 31.5803 -103.0192 101° East 523 602 39,000  Level Albuquerque Center
01:55AM 31.5525 -102.8531 101° East 522 601 39,000  Level Albuquerque Center
01:56AM 31.5244 -102.6867 101° East 521 600 39,000  Level Albuquerque Center
01:57AM 31.4914 -102.4931 101° East 519 597 39,000  Level Albuquerque Center
01:58AM 31.4622 -102.3267 102° East 525 604 39,000  Level Albuquerque Center
01:59AM 31.4333 -102.1631 102° East 519 597 39,000  Level Albuquerque Center
02:00AM 31.4053 -102.0003 101° East 514 592 39,000  Level Albuquerque Center
02:01AM 31.3800 -101.8494 101° East 515 593 39,000  Level Albuquerque Center
02:02AM 31.3447 -101.6869 104° East 515 593 39,000  Level Albuquerque Center
02:03AM 31.2994 -101.5261 108° East 519 597 39,000  Level Houston Center
02:04AM 31.2556 -101.3636 107° East 522 601 39,000  Level Houston Center
02:05AM 31.2111 -101.2014 108° East 524 603 39,000  Level Houston Center
02:06AM 31.1689 -101.0447 107° East 525 604 39,000  Level Houston Center
02:07AM 31.1253 -100.8808 107° East 527 606 39,000  Level Houston Center
02:08AM 31.0792 -100.7175 108° East 528 608 39,000  Level Houston Center
02:09AM 31.0350 -100.5542 107° East 529 609 39,000  Level Houston Center
02:10AM 30.9889 -100.3917 108° East 526 605 39,000  Level Houston Center
02:11AM 30.9431 -100.2253 108° East 529 609 39,000  Level Houston Center
02:12AM 30.8997 -100.0664 108° East 526 605 39,000 -120 Level Houston Center
02:13AM 30.8536 -99.9058 108° East 521 600 38,800 -1,020 Descending Houston Center
02:14AM 30.8072 -99.7447 108° East 523 602 37,000 -2,340 Descending Houston Center
02:15AM 30.7606 -99.5828 109° East 526 605 34,200 -2,820 Descending Houston Center
02:16AM 30.7147 -99.4222 108° East 523 602 31,400 -2,820 Descending Houston Center
02:17AM 30.6703 -99.2669 108° East 508 585 28,600 -2,700 Descending Houston Center
02:18AM 30.6308 -99.1306 109° East 496 571 26,100 -2,640 Descending Houston Center
02:19AM 30.5872 -98.9839 109° East 479 551 23,400 -2,640 Descending Houston Center
02:20AM 30.5442 -98.8364 109° East 479 551 20,900 -2,580 Descending Houston Center
02:21AM 30.5006 -98.6897 109° East 478 550 18,300 -2,400 Descending Houston Center
02:22AM 30.4594 -98.5531 109° East 450 518 16,100 -2,340 Descending Houston Center
02:23AM 30.4217 -98.4225 109° East 428 493 13,700 -1,920 Descending Houston Center
02:24AM 30.3853 -98.3039 110° East 394 453 12,300 -1,500 Descending Houston Center
02:25AM 30.3536 -98.1981 109° East 354 407 10,700 -1,320 Descending Houston Center
02:26AM 30.3081 -98.1047 119° Southeast 313 360 9,700 -1,320 Descending Houston Center
02:27AM 30.2683 -98.0258 120° Southeast 288 331 8,100 -1,560 Descending Houston Center
02:28AM 30.2275 -97.9483 121° Southeast 285 328 6,600 -1,380 Descending Houston Center
02:29AM 30.1825 -97.8783 127° Southeast 274 315 5,400 -1,140 Descending Houston Center
02:30AM 30.1392 -97.8194 130° Southeast 256 295 4,400 -1,140 Descending Houston Center
02:31AM 30.0989 -97.7664 131° Southeast 231 266 3,200 -900 Descending Houston Center
02:32AM 30.0775 -97.7100 114° Southeast 203 234 2,600 -600 Descending Houston Center
02:33AM 30.0947 -97.6753 60° Northeast 156 180 2,000 -600 Descending Houston Center
02:34AM 30.1272 -97.6761 359° North 123 142 1,500 -540 Descending Houston Center